METAR Data
IDs: Format: Raw Decoded Include TAF

Data at: 2200 UTC 10 May 2021

K4BM 102155Z AUTO 16007G15KT 3SM -SN SCT002 BKN020 OVC035 00/M02 A3010 RMK AO2
K4BM 102135Z AUTO 20007G15KT 4SM HZ SCT023 BKN029 OVC041 00/M03 A3009 RMK AO2
K4BM 102115Z AUTO 18005KT 10SM SCT003 BKN032 OVC049 01/M02 A3009 RMK AO2
K4BM 102055Z AUTO 19003KT 10SM SCT001 BKN017 BKN027 01/M01 A3009 RMK AO2
K4BM 102035Z AUTO 17005G19KT 3SM HZ SCT001 BKN032 OVC095 01/M03 A3010 RMK AO2
K4BM 102015Z AUTO 21005G18KT 10SM SCT022 BKN034 BKN070 03/M03 A3009 RMK AO2
K4BM 101955Z AUTO 19009G20KT 10SM SCT025 SCT031 BKN041 03/M03 A3009 RMK AO2
K4BM 101935Z AUTO 20005G16KT 10SM SCT024 SCT028 BKN046 02/M04 A3010 RMK AO2
K4BM 101915Z AUTO 21005KT 10SM SCT032 SCT041 BKN047 01/M03 A3009 RMK AO2
K4BM 101855Z AUTO 22005G19KT 10SM BKN031 OVC039 00/M04 A3010 RMK AO2
K4BM 101835Z AUTO 18005G23KT 7SM SCT030 BKN035 OVC041 00/M03 A3010 RMK AO2
K4BM 101815Z AUTO 18012G18KT 10SM SCT024 BKN031 OVC050 00/M02 A3009 RMK AO2
K4BM 101755Z AUTO 18008G14KT 150V210 10SM SCT004 BKN016 OVC050 00/M02 A3009 RMK AO2
K4BM 101735Z AUTO 18006KT 3/4SM -SN BKN002 OVC006 M01/M02 A3009 RMK AO2
K4BM 101715Z AUTO 19008G16KT 1SM -SN OVC004 M01/M02 A3010 RMK AO2
K4BM 101655Z AUTO 18007KT 5SM -SN BKN003 OVC020 00/M01 A3010 RMK AO2
K4BM 101635Z AUTO 17005KT 1 1/4SM BR OVC001 M01/M02 A3010 RMK AO2
K4BM 101615Z AUTO 18005KT 1/2SM FZFG OVC001 M01/M02 A3010 RMK AO2
K4BM 101555Z AUTO 18004KT 1 3/4SM BR OVC001 M02/M03 A3010 RMK AO2
K4BM 101535Z AUTO 17003KT 1/2SM FZFG OVC001 M02/M03 A3010 RMK AO2
K4BM 101515Z AUTO 16006KT 1 1/2SM BR OVC001 M02/M03 A3010 RMK AO2 VIS 1/2V5
K4BM 101455Z AUTO 17007KT 10SM SCT001 BKN110 M02/M03 A3010 RMK AO2
K4BM 101435Z AUTO 17008KT 7SM BKN001 BKN110 M02/M03 A3010 RMK AO2
K4BM 101415Z AUTO 17009G14KT 10SM SCT001 M03/M04 A3011 RMK AO2
K4BM 101355Z AUTO 17007KT 10SM CLR M03/M04 A3011 RMK AO2
K4BM 101335Z AUTO 17008KT 10SM SCT001 M03/M05 A3011 RMK AO2
K4BM 101315Z AUTO 17007KT 5SM BR BKN001 M04/M05 A3011 RMK AO2
K4BM 101255Z AUTO 17008KT 1 1/2SM BR OVC001 M04/M05 A3011 RMK AO2 VIS 1/2V5
K4BM 101235Z AUTO 17006KT 2 1/2SM BR OVC003 M04/M05 A3011 RMK AO2 VIS 1V5
K4BM 101215Z AUTO 18007KT 7SM OVC003 M04/M05 A3012 RMK AO2
K4BM 101155Z AUTO 17006KT 7SM OVC001 M04/M06 A3012 RMK AO2
K4BM 101135Z AUTO 17004KT 2SM BR OVC001 M04/M05 A3012 RMK AO2 VIS 1V5
K4BM 101115Z AUTO 00000KT 7SM OVC001 M03/M05 A3013 RMK AO2
K4BM 101055Z AUTO 17004KT 1 1/2SM BR OVC001 M03/M05 A3014 RMK AO2
K4BM 101035Z AUTO 16003KT 3/4SM BR OVC001 M03/M05 A3014 RMK AO2
K4BM 101015Z AUTO 17003KT 3/4SM -SN OVC001 M03/M05 A3014 RMK AO2
K4BM 100955Z AUTO 17004KT 1/2SM -SN OVC001 M03/M05 A3014 RMK AO2
K4BM 100935Z AUTO 17003KT 1/2SM SN OVC001 M03/M05 A3014 RMK AO2
K4BM 100915Z AUTO 17003KT 1/4SM -SN OVC001 M03/M05 A3014 RMK AO2
K4BM 100855Z AUTO 17004KT 3/4SM SN OVC001 M03/M05 A3014 RMK AO2
K4BM 100835Z AUTO 00000KT 3/4SM SN OVC001 M03/M05 A3015 RMK AO2
K4BM 100815Z AUTO 00000KT 1SM -SN OVC001 M03/M05 A3016 RMK AO2
K4BM 100755Z AUTO 00000KT 1/2SM -SN BKN001 BKN008 OVC016 M03/M05 A3017 RMK AO2
K4BM 100735Z AUTO 00000KT 1 3/4SM -SN SCT025 BKN032 OVC043 M03/M05 A3017 RMK AO2
K4BM 100715Z AUTO 17003KT 10SM SCT036 OVC043 M03/M05 A3017 RMK AO2 LTG DSNT NW
K4BM 100655Z AUTO 18004KT 10SM BKN043 OVC050 M03/M05 A3017 RMK AO2
K4BM 100635Z AUTO 17003KT 10SM BKN050 OVC060 M03/M05 A3017 RMK AO2
K4BM 100615Z AUTO 00000KT 10SM BKN060 BKN080 BKN120 M03/M05 A3017 RMK AO2
K4BM 100555Z AUTO 19005KT 10SM SCT065 BKN070 BKN120 M03/M05 A3017 RMK AO2
K4BM 100535Z AUTO 20006KT 10SM BKN065 BKN075 M03/M05 A3017 RMK AO2
K4BM 100515Z AUTO 18007KT 10SM SCT070 SCT110 M03/M05 A3017 RMK AO2
K4BM 100455Z AUTO 19006KT 10SM CLR M03/M05 A3017 RMK AO2
K4BM 100435Z AUTO 18007KT 10SM SCT080 SCT100 M03/M05 A3017 RMK AO2
K4BM 100415Z AUTO 18007KT 10SM SCT090 M03/M05 A3017 RMK AO2
K4BM 100355Z AUTO 18007KT 10SM SCT100 M03/M05 A3017 RMK AO2
K4BM 100335Z AUTO 19005KT 10SM SCT100 M03/M05 A3017 RMK AO2
K4BM 100315Z AUTO 00000KT 2 1/2SM BR CLR M03/M05 A3017 RMK AO2 VIS 1V5
K4BM 100255Z AUTO 18003KT 5SM BR CLR M03/M05 A3017 RMK AO2
K4BM 100235Z AUTO 18004KT 7SM SCT070 SCT090 M03/M04 A3017 RMK AO2
K4BM 100215Z AUTO 00000KT 10SM SCT070 SCT075 BKN090 M03/M04 A3016 RMK AO2
K4BM 100155Z AUTO 19003KT 10SM SCT055 BKN070 OVC090 M02/M03 A3015 RMK AO2
K4BM 100135Z AUTO 00000KT 7SM SCT001 BKN060 BKN070 M02/M03 A3014 RMK AO2
K4BM 100115Z AUTO 06003KT M1/4SM +SN OVC001 M03/M04 A3014 RMK AO2
K4BM 100055Z AUTO 08004KT M1/4SM +SN OVC001 M03/M03 A3014 RMK AO2
K4BM 100035Z AUTO 05007KT M1/4SM +SN OVC001 M03/M03 A3014 RMK AO2
K4BM 100015Z AUTO 08007KT M1/4SM +SN OVC001 M02/M03 A3014 RMK AO2
K4BM 092355Z AUTO 00000KT M1/4SM FZFG OVC001 M01/M03 A3013 RMK AO2
K4BM 092335Z AUTO 15003KT 1/4SM FZFG OVC001 M01/M03 A3013 RMK AO2
K4BM 092315Z AUTO 10004KT M1/4SM SN OVC001 M02/M03 A3012 RMK AO2
K4BM 092255Z AUTO 20008KT 160V230 10SM SCT060 OVC070 00/M05 A3012 RMK AO2
K4BM 092235Z AUTO 00000KT 7SM BKN060 OVC070 00/M04 A3012 RMK AO2
K4BM 092215Z AUTO 18006KT 10SM BKN060 OVC070 00/M05 A3012 RMK AO2
K4BM 092155Z AUTO 21007KT 10SM BKN060 BKN070 OVC085 00/M05 A3012 RMK AO2
K4BM 092135Z AUTO 17007KT 10SM SCT060 BKN070 OVC090 00/M03 A3012 RMK AO2
K4BM 092115Z AUTO 17004KT 10SM SCT001 SCT060 BKN090 00/M03 A3012 RMK AO2
K4BM 092055Z AUTO 13003KT 1/2SM FZFG OVC001 00/M02 A3012 RMK AO2
K4BM 092035Z AUTO 15005KT 1 3/4SM -SN BKN001 BKN011 OVC039 M01/M03 A3012 RMK AO2
K4BM 092015Z AUTO 16006G15KT 3/4SM -SN BKN003 OVC009 M01/M02 A3012 RMK AO2
K4BM 091955Z AUTO 18009G18KT 1 1/4SM -SN SCT001 BKN009 OVC016 M01/M03 A3013 RMK AO2
K4BM 091935Z AUTO 00000KT 1/4SM FZFG OVC001 M01/M03 A3013 RMK AO2
K4BM 091915Z AUTO 16003KT 10SM SCT005 BKN011 OVC043 00/M03 A3013 RMK AO2
K4BM 091855Z AUTO 16004KT 10SM SCT001 BKN005 OVC012 00/M03 A3014 RMK AO2
K4BM 091835Z AUTO 16004KT 10SM BKN005 OVC011 00/M03 A3014 RMK AO2
K4BM 091815Z AUTO 16006KT 10SM SCT003 BKN007 OVC025 00/M02 A3014 RMK AO2
K4BM 091755Z AUTO 15006G15KT 10SM BKN003 OVC024 00/M01 A3014 RMK AO2
K4BM 091735Z AUTO 15008KT 5SM BR OVC003 M01/M02 A3014 RMK AO2
K4BM 091715Z AUTO 15005KT 2 1/2SM BR OVC001 M01/M02 A3015 RMK AO2 VIS 3/4V5
K4BM 091655Z AUTO 16009KT 3SM BR OVC001 00/M02 A3015 RMK AO2
K4BM 091635Z AUTO 16007KT 2SM BR OVC001 00/M01 A3015 RMK AO2 VIS 3/4V5
K4BM 091615Z AUTO 16007KT 1SM BR OVC001 M01/M02 A3015 RMK AO2
K4BM 091555Z AUTO 17007KT 1/2SM FZFG OVC001 M01/M02 A3015 RMK AO2
K4BM 091535Z AUTO 16008KT 1 3/4SM BR OVC001 M01/M02 A3015 RMK AO2 VIS 1/2V5
K4BM 091515Z AUTO 16006KT 3/4SM BR OVC001 M01/M02 A3017 RMK AO2 VIS 1/4V5
K4BM 091455Z AUTO 16005KT 1 1/2SM BR OVC001 M02/M03 A3017 RMK AO2
K4BM 091435Z AUTO 15004KT 1/2SM FZFG OVC001 M02/M03 A3017 RMK AO2
K4BM 091415Z AUTO 17004KT 1/2SM FZFG OVC001 M02/M03 A3016 RMK AO2
K4BM 091355Z AUTO 17005KT 1/4SM FZFG OVC001 M02/M03 A3016 RMK AO2
K4BM 091335Z AUTO 16005KT M1/4SM FZFG OVC001 M02/M03 A3015 RMK AO2
K4BM 091315Z AUTO 15005KT 1/4SM FZFG OVC001 M03/M03 A3015 RMK AO2
K4BM 091255Z AUTO 16005KT 1/4SM FZFG OVC001 M02/M03 A3014 RMK AO2
K4BM 091235Z AUTO 15006KT M1/4SM -SN OVC001 M02/M03 A3014 RMK AO2
K4BM 091215Z AUTO 17006KT 1/4SM -SN OVC001 M02/M03 A3014 RMK AO2
K4BM 091155Z AUTO 15005KT 1/2SM FZFG OVC001 M02/M03 A3014 RMK AO2
K4BM 091135Z AUTO 15007KT 1/2SM FZFG OVC001 M02/M03 A3014 RMK AO2
K4BM 091115Z AUTO 16003KT 1/2SM FZFG OVC001 M02/M03 A3014 RMK AO2
K4BM 091055Z AUTO 00000KT 3/4SM BR OVC001 M02/M03 A3014 RMK AO2
K4BM 091035Z AUTO 15005KT 3/4SM BR OVC001 M02/M03 A3014 RMK AO2
K4BM 091015Z AUTO 15003KT 1SM BR OVC001 M02/M03 A3014 RMK AO2